createdAt,value
2022-09-21T00:01:28.238Z,60.94
2022-09-21T00:04:02.144Z,61.21
2022-09-21T00:06:33.051Z,61.98
2022-09-21T00:09:00.936Z,61.67
2022-09-21T00:11:31.000Z,62.28
2022-09-21T00:14:01.166Z,61.83
2022-09-21T00:16:29.189Z,62.14
2022-09-21T00:18:56.770Z,61.95
2022-09-21T00:21:24.709Z,62.41
2022-09-21T00:23:52.075Z,62.90
2022-09-21T00:26:22.584Z,62.96
2022-09-21T00:28:55.572Z,62.65
2022-09-21T00:31:23.604Z,62.32
2022-09-21T00:33:51.482Z,62.16
2022-09-21T00:36:21.044Z,61.19
2022-09-21T00:38:53.975Z,62.08
2022-09-21T00:41:21.941Z,61.59
2022-09-21T00:44:47.057Z,61.04
2022-09-21T00:47:19.905Z,60.71
2022-09-21T00:49:50.415Z,60.42
2022-09-21T00:52:20.127Z,61.03
2022-09-21T00:54:52.416Z,61.06
2022-09-21T00:57:22.232Z,61.36
2022-09-21T00:59:52.010Z,61.26
2022-09-21T01:02:19.535Z,61.41
2022-09-21T01:04:47.986Z,61.44
2022-09-21T01:07:20.396Z,61.21
2022-09-21T01:09:53.125Z,61.25
2022-09-21T01:12:29.671Z,61.29
2022-09-21T01:14:56.857Z,61.48
2022-09-21T01:17:36.256Z,61.06
2022-09-21T01:20:06.226Z,60.88
2022-09-21T01:23:09.320Z,60.33
2022-09-21T01:26:23.691Z,60.54
2022-09-21T01:29:09.644Z,61.33
2022-09-21T01:34:56.277Z,62.17
2022-09-21T01:37:31.636Z,62.82
2022-09-21T01:40:03.390Z,63.68
2022-09-21T01:42:33.142Z,64.21
2022-09-21T01:45:04.492Z,64.03
2022-09-21T01:47:32.639Z,64.42
2022-09-21T01:50:03.313Z,64.75
2022-09-21T01:52:34.675Z,63.96
2022-09-21T01:55:09.471Z,63.92
2022-09-21T01:57:55.323Z,63.66
2022-09-21T02:00:25.036Z,63.12
2022-09-21T02:02:58.726Z,63.51
2022-09-21T02:05:30.661Z,63.40
2022-09-21T02:07:59.327Z,63.13
2022-09-21T02:10:44.471Z,64.10
2022-09-21T02:13:15.448Z,63.83
2022-09-21T02:16:14.885Z,63.63
2022-09-21T02:19:11.149Z,64.13
2022-09-21T02:21:47.333Z,64.14
2022-09-21T02:24:23.063Z,63.92
2022-09-21T02:27:06.854Z,63.87
2022-09-21T02:29:46.614Z,64.22
2022-09-21T02:32:34.227Z,64.64
2022-09-21T02:35:16.027Z,65.68
2022-09-21T02:37:57.214Z,65.12
2022-09-21T02:40:31.588Z,64.27
2022-09-21T02:43:12.457Z,63.34
2022-09-21T02:45:49.279Z,62.88
2022-09-21T02:48:22.236Z,61.98
2022-09-21T02:50:57.587Z,61.50
2022-09-21T02:53:29.518Z,62.80
2022-09-21T02:56:04.125Z,62.87
2022-09-21T02:58:33.218Z,63.12
2022-09-21T03:01:00.766Z,63.83
2022-09-21T03:03:28.309Z,63.35
2022-09-21T03:05:56.159Z,63.49
2022-09-21T03:08:23.478Z,63.50
2022-09-21T03:10:51.069Z,63.55
2022-09-21T03:13:19.167Z,63.18
2022-09-21T03:15:47.563Z,63.14
2022-09-21T03:18:15.308Z,63.25
2022-09-21T03:20:49.480Z,63.87
2022-09-21T03:23:16.822Z,64.13
2022-09-21T03:25:46.470Z,64.39
2022-09-21T03:28:14.939Z,65.58
2022-09-21T03:30:42.893Z,65.40
2022-09-21T03:33:11.688Z,64.66
2022-09-21T03:35:39.725Z,64.64
2022-09-21T03:38:07.265Z,64.91
2022-09-21T03:40:34.968Z,64.52
2022-09-21T03:43:02.333Z,64.53
2022-09-21T03:45:30.193Z,63.64
2022-09-21T03:47:59.257Z,63.60
2022-09-21T03:50:29.054Z,63.59
2022-09-21T03:52:57.281Z,64.27
2022-09-21T03:55:25.190Z,64.83
2022-09-21T03:57:53.165Z,64.86
2022-09-21T04:00:21.183Z,65.04
2022-09-21T04:02:48.770Z,65.22
2022-09-21T04:05:17.280Z,64.99
2022-09-21T04:07:46.139Z,65.21
2022-09-21T04:10:19.766Z,65.50
2022-09-21T04:12:50.223Z,66.13
2022-09-21T04:15:22.295Z,64.65
2022-09-21T04:17:54.013Z,64.38
2022-09-21T04:20:22.703Z,64.19
2022-09-21T04:22:51.801Z,64.33
2022-09-21T04:25:19.296Z,64.42
2022-09-21T04:27:47.095Z,64.58
2022-09-21T04:30:16.624Z,63.97
2022-09-21T04:32:44.215Z,64.18
2022-09-21T04:35:11.683Z,65.43
2022-09-21T04:37:39.064Z,64.98
2022-09-21T04:40:07.738Z,65.85
2022-09-21T04:42:35.851Z,64.96
2022-09-21T04:45:05.283Z,68.07
2022-09-21T04:47:32.639Z,68.37
2022-09-21T04:50:00.096Z,68.14
2022-09-21T04:52:27.425Z,65.25
2022-09-21T04:54:54.745Z,65.03
2022-09-21T04:57:22.059Z,67.59
2022-09-21T04:59:49.566Z,65.49
2022-09-21T05:02:18.066Z,67.96
2022-09-21T05:04:50.110Z,68.82
2022-09-21T05:07:18.245Z,68.97
2022-09-21T05:10:03.577Z,68.68
2022-09-21T05:12:33.431Z,68.12
2022-09-21T05:15:01.015Z,68.33
2022-09-21T05:17:29.067Z,66.01
2022-09-21T05:19:56.461Z,65.18
2022-09-21T05:22:24.602Z,65.03
2022-09-21T05:24:51.946Z,65.47
2022-09-21T05:27:19.252Z,65.92
2022-09-21T05:29:46.806Z,64.28
2022-09-21T05:32:18.925Z,65.00
2022-09-21T05:35:12.230Z,63.00
2022-09-21T05:37:54.239Z,62.26
2022-09-21T05:40:21.971Z,61.57
2022-09-21T05:42:49.746Z,61.66
2022-09-21T05:45:18.926Z,61.49
2022-09-21T05:47:48.762Z,60.59
2022-09-21T05:50:37.073Z,60.39
2022-09-21T05:53:24.355Z,59.91
2022-09-21T05:56:01.145Z,59.28
2022-09-21T05:58:47.124Z,57.08
2022-09-21T06:01:26.487Z,56.32
2022-09-21T06:03:55.175Z,56.60
2022-09-21T06:06:22.672Z,55.82
2022-09-21T06:08:50.022Z,55.23
2022-09-21T06:11:17.642Z,53.85
2022-09-21T06:13:45.161Z,54.42
2022-09-21T06:16:12.537Z,54.23
2022-09-21T06:18:41.096Z,53.42
2022-09-21T06:21:08.777Z,52.70
2022-09-21T06:23:36.839Z,52.77
2022-09-21T06:26:04.587Z,52.62
2022-09-21T06:28:31.950Z,53.91
2022-09-21T06:31:00.013Z,52.67
2022-09-21T06:33:27.537Z,52.06
2022-09-21T06:35:59.631Z,51.95
2022-09-21T06:38:29.375Z,51.54
2022-09-21T06:41:01.133Z,51.10
2022-09-21T06:43:28.545Z,51.19
2022-09-21T06:45:57.736Z,52.49
2022-09-21T06:48:26.167Z,53.33
2022-09-21T06:51:00.710Z,53.04
2022-09-21T06:53:29.902Z,52.65
2022-09-21T06:56:23.801Z,53.33
2022-09-21T06:58:52.790Z,52.07
2022-09-21T07:01:23.688Z,50.63
2022-09-21T07:03:52.177Z,50.42
2022-09-21T07:06:22.585Z,48.78
2022-09-21T07:11:43.514Z,46.24
2022-09-21T07:14:11.863Z,47.40
2022-09-21T07:16:41.294Z,46.79
2022-09-21T07:19:12.117Z,46.18
2022-09-21T07:21:40.896Z,46.07
2022-09-21T07:24:11.899Z,46.63
2022-09-21T07:26:39.873Z,46.54
2022-09-21T07:29:07.590Z,44.11
2022-09-21T07:31:35.487Z,44.72
2022-09-21T07:34:03.137Z,44.79
2022-09-21T07:36:30.568Z,44.40
2022-09-21T07:39:00.568Z,45.41
2022-09-21T07:41:28.192Z,45.65
2022-09-21T07:43:55.618Z,45.43
2022-09-21T07:46:23.132Z,46.59
2022-09-21T07:48:54.964Z,45.88
2022-09-21T07:51:23.363Z,46.87
2022-09-21T07:53:59.076Z,47.67
2022-09-21T07:56:28.649Z,48.17
2022-09-21T07:59:07.770Z,48.96
2022-09-21T08:01:37.388Z,47.96
2022-09-21T08:04:07.104Z,47.80
2022-09-21T08:06:36.209Z,47.12
2022-09-21T08:09:04.383Z,48.19
2022-09-21T08:11:33.603Z,47.86
2022-09-21T08:14:02.839Z,48.70
2022-09-21T08:16:31.719Z,48.69
2022-09-21T08:18:59.142Z,48.91
2022-09-21T08:21:26.878Z,48.70
2022-09-21T08:23:54.327Z,47.16
2022-09-21T08:26:22.973Z,47.07
2022-09-21T08:28:52.493Z,46.77
2022-09-21T08:31:22.462Z,46.58
2022-09-21T08:33:50.878Z,45.60
2022-09-21T08:36:19.829Z,44.29
2022-09-21T08:38:48.658Z,43.58
2022-09-21T08:41:23.638Z,43.88
2022-09-21T08:44:00.175Z,42.95
2022-09-21T08:46:31.132Z,42.91
2022-09-21T08:49:11.074Z,41.38
2022-09-21T08:51:52.159Z,41.16
2022-09-21T08:54:45.360Z,40.74
2022-09-21T08:57:14.653Z,40.49
2022-09-21T08:59:47.505Z,39.58
2022-09-21T09:02:39.512Z,38.86
2022-09-21T09:05:33.129Z,38.17
2022-09-21T09:08:28.347Z,37.51
2022-09-21T09:11:25.808Z,36.55
2022-09-21T09:14:13.168Z,36.50
2022-09-21T09:16:55.565Z,36.77
2022-09-21T09:19:33.189Z,34.44
2022-09-21T09:22:04.786Z,34.95
2022-09-21T09:24:49.695Z,33.47
2022-09-21T09:27:22.561Z,32.96
2022-09-21T09:30:03.663Z,33.01
2022-09-21T09:32:44.133Z,31.82
2022-09-21T09:35:52.539Z,30.41
2022-09-21T09:38:28.424Z,31.80
2022-09-21T09:41:10.397Z,31.27
2022-09-21T09:43:52.895Z,31.28
2022-09-21T09:47:02.595Z,30.54
2022-09-21T09:49:54.620Z,30.46
2022-09-21T09:52:22.695Z,31.05
2022-09-21T09:54:50.074Z,31.12
2022-09-21T09:57:31.510Z,30.95
2022-09-21T10:00:12.599Z,30.90
2022-09-21T10:02:47.923Z,31.80
2022-09-21T10:05:22.796Z,30.41
2022-09-21T10:07:53.928Z,30.42
2022-09-21T10:10:32.987Z,30.53
2022-09-21T10:13:20.266Z,31.10
2022-09-21T10:15:57.690Z,30.52
2022-09-21T10:18:47.053Z,31.52
2022-09-21T10:21:26.766Z,30.96
2022-09-21T10:24:28.649Z,30.96
2022-09-21T10:27:03.751Z,31.29
2022-09-21T10:29:39.100Z,31.09
2022-09-21T10:32:21.210Z,30.12
2022-09-21T10:35:10.847Z,29.85
2022-09-21T10:37:48.661Z,30.10
2022-09-21T10:40:22.278Z,29.81
2022-09-21T10:43:02.086Z,29.42
2022-09-21T10:45:30.716Z,29.59
2022-09-21T10:48:06.775Z,30.38
2022-09-21T10:50:40.631Z,29.54
2022-09-21T10:53:20.671Z,28.61
2022-09-21T10:56:15.137Z,29.17
2022-09-21T10:59:14.029Z,29.86
2022-09-21T11:01:48.823Z,29.39
2022-09-21T11:04:38.892Z,30.12
2022-09-21T11:07:27.787Z,29.73
2022-09-21T11:10:13.389Z,29.90
2022-09-21T11:12:43.643Z,30.15
2022-09-21T11:15:21.230Z,31.22
2022-09-21T11:18:16.357Z,32.03
2022-09-21T11:20:55.414Z,31.79
2022-09-21T11:23:37.269Z,30.04
2022-09-21T11:26:26.486Z,29.50
2022-09-21T11:29:09.331Z,30.58
2022-09-21T11:31:45.750Z,29.92
2022-09-21T11:34:31.265Z,29.73
2022-09-21T11:37:17.866Z,29.34
2022-09-21T11:40:04.517Z,27.61
2022-09-21T11:42:43.621Z,24.77
2022-09-21T11:45:52.171Z,24.63
2022-09-21T11:48:28.604Z,24.42
2022-09-21T11:51:09.557Z,24.13
2022-09-21T11:53:53.847Z,23.84
2022-09-21T11:56:55.560Z,24.25
2022-09-21T11:59:32.396Z,25.40
2022-09-21T12:02:31.449Z,26.57
2022-09-21T12:05:15.430Z,27.85
2022-09-21T12:07:51.510Z,27.60
2022-09-21T12:10:44.557Z,28.66
2022-09-21T12:13:28.705Z,28.42
2022-09-21T12:16:28.359Z,28.90
2022-09-21T12:19:06.150Z,28.13
2022-09-21T12:21:47.102Z,27.97
2022-09-21T12:24:31.855Z,28.41
2022-09-21T12:27:08.941Z,28.33
2022-09-21T12:29:49.268Z,28.61
2022-09-21T12:32:22.514Z,28.60
2022-09-21T12:34:57.587Z,29.03
2022-09-21T12:37:37.373Z,29.72
2022-09-21T12:40:30.756Z,28.92
2022-09-21T12:43:15.431Z,29.27
2022-09-21T12:45:51.753Z,28.68
2022-09-21T12:48:32.115Z,29.16
2022-09-21T12:51:06.622Z,28.73
2022-09-21T12:53:39.002Z,29.02
2022-09-21T12:56:10.213Z,28.92
2022-09-21T12:59:00.673Z,28.35
2022-09-21T13:01:42.997Z,28.36
2022-09-21T13:04:47.762Z,28.31
2022-09-21T13:07:39.022Z,28.39
2022-09-21T13:10:40.052Z,27.84
2022-09-21T13:13:18.377Z,27.74
2022-09-21T13:15:48.962Z,27.63
2022-09-21T13:18:36.223Z,27.29
2022-09-21T13:21:26.753Z,27.40
2022-09-21T13:24:05.567Z,27.14
2022-09-21T13:26:39.659Z,27.13
2022-09-21T13:29:25.348Z,27.31
2022-09-21T13:32:00.387Z,27.30
2022-09-21T13:34:32.038Z,26.97
2022-09-21T13:37:11.712Z,27.35
2022-09-21T13:39:51.354Z,27.75
2022-09-21T13:42:31.269Z,27.49
2022-09-21T13:45:19.276Z,27.43
2022-09-21T13:48:00.402Z,27.58
2022-09-21T13:50:30.347Z,27.83
2022-09-21T13:53:31.882Z,27.87
2022-09-21T13:56:10.413Z,27.64
2022-09-21T13:58:46.240Z,27.58
2022-09-21T14:01:45.060Z,27.46
2022-09-21T14:04:29.850Z,27.72
2022-09-21T14:07:07.549Z,27.30
2022-09-21T14:09:59.692Z,27.45
2022-09-21T14:12:32.672Z,26.90
2022-09-21T14:15:23.208Z,27.23
2022-09-21T14:18:18.357Z,26.90
2022-09-21T14:21:09.886Z,26.94
2022-09-21T14:23:38.784Z,26.80
2022-09-21T14:26:44.142Z,26.65
2022-09-21T14:29:36.403Z,26.70
2022-09-21T14:32:05.964Z,26.74
2022-09-21T14:34:37.364Z,26.31
2022-09-21T14:37:33.087Z,26.64
2022-09-21T14:40:16.911Z,26.74
2022-09-21T14:42:44.692Z,27.02
2022-09-21T14:45:18.959Z,26.73
2022-09-21T14:47:53.852Z,26.96
2022-09-21T14:50:26.635Z,27.56
2022-09-21T14:53:10.880Z,28.43
2022-09-21T14:56:10.327Z,28.71
2022-09-21T14:58:52.409Z,29.23
2022-09-21T15:01:35.511Z,29.64
2022-09-21T15:04:23.923Z,30.25
2022-09-21T15:07:23.940Z,30.57
2022-09-21T15:10:37.594Z,31.44
2022-09-21T15:13:05.445Z,32.13
2022-09-21T15:15:40.973Z,31.60
2022-09-21T15:18:28.552Z,32.26
2022-09-21T15:21:04.391Z,31.96
2022-09-21T15:23:41.844Z,31.45
2022-09-21T15:26:29.408Z,31.65
2022-09-21T15:29:09.771Z,31.49
2022-09-21T15:31:40.981Z,32.03
2022-09-21T15:34:11.165Z,31.81
2022-09-21T15:36:44.922Z,32.12
2022-09-21T15:39:27.015Z,32.24
2022-09-21T15:42:10.794Z,31.90
2022-09-21T15:44:39.862Z,32.40
2022-09-21T15:47:15.003Z,32.31
2022-09-21T15:49:43.421Z,32.31
2022-09-21T15:52:26.506Z,32.28
2022-09-21T15:55:00.718Z,32.24
2022-09-21T15:57:40.793Z,32.04
2022-09-21T16:00:20.274Z,32.32
2022-09-21T16:02:53.382Z,32.17
2022-09-21T16:05:23.062Z,32.43
2022-09-21T16:07:51.957Z,32.73
2022-09-21T16:10:31.599Z,32.62
2022-09-21T16:13:27.678Z,32.77
2022-09-21T16:16:09.704Z,32.35
2022-09-21T16:19:01.735Z,32.28
2022-09-21T16:21:34.441Z,32.36
2022-09-21T16:24:19.224Z,32.65
2022-09-21T16:27:03.510Z,32.67
2022-09-21T16:29:50.466Z,32.94
2022-09-21T16:32:37.764Z,33.30
2022-09-21T16:35:27.313Z,33.39
2022-09-21T16:37:57.739Z,33.97
2022-09-21T16:40:29.750Z,33.80
2022-09-21T16:42:57.327Z,33.76
2022-09-21T16:45:32.677Z,33.94
2022-09-21T16:48:00.780Z,33.87
2022-09-21T16:50:28.301Z,34.18
2022-09-21T16:52:58.311Z,34.48
2022-09-21T16:55:29.110Z,34.53
2022-09-21T16:57:57.429Z,35.14
2022-09-21T17:00:25.018Z,34.83
2022-09-21T17:02:52.402Z,35.55
2022-09-21T17:05:20.876Z,35.48
2022-09-21T17:07:57.584Z,35.76
2022-09-21T17:10:29.417Z,36.16
2022-09-21T17:12:57.075Z,36.67
2022-09-21T17:15:25.775Z,36.88
2022-09-21T17:17:53.254Z,36.81
2022-09-21T17:20:44.909Z,36.95
2022-09-21T17:23:12.328Z,37.44
2022-09-21T17:25:39.747Z,37.63
2022-09-21T17:28:14.908Z,38.08
2022-09-21T17:30:42.770Z,38.06
2022-09-21T17:33:10.969Z,37.82
2022-09-21T17:35:42.225Z,38.08
2022-09-21T17:38:14.163Z,38.57
2022-09-21T17:40:43.245Z,38.80
2022-09-21T17:43:21.765Z,38.96
2022-09-21T17:46:01.136Z,39.08
2022-09-21T17:48:33.804Z,39.32
2022-09-21T17:51:04.734Z,39.54
2022-09-21T17:53:41.306Z,39.52
2022-09-21T17:56:17.856Z,39.71
2022-09-21T17:59:00.244Z,39.66
2022-09-21T18:01:41.795Z,40.36
2022-09-21T18:04:14.191Z,39.85
2022-09-21T18:06:41.796Z,40.16
2022-09-21T18:09:12.790Z,40.27
2022-09-21T18:12:02.018Z,40.16
2022-09-21T18:15:02.381Z,40.54
2022-09-21T18:17:35.418Z,40.73
2022-09-21T18:20:21.232Z,40.85
2022-09-21T18:23:17.798Z,40.58
2022-09-21T18:25:49.520Z,40.93
2022-09-21T18:28:35.508Z,41.10
2022-09-21T18:31:21.498Z,41.30
2022-09-21T18:33:48.847Z,41.00
2022-09-21T18:36:21.243Z,41.11
2022-09-21T18:39:13.247Z,41.25
2022-09-21T18:41:59.181Z,41.21
2022-09-21T18:45:00.212Z,40.86
2022-09-21T18:47:34.123Z,40.95
2022-09-21T18:50:24.895Z,42.44
2022-09-21T18:53:03.212Z,41.21
2022-09-21T18:55:33.324Z,41.44
2022-09-21T18:58:01.448Z,41.41
2022-09-21T19:00:34.995Z,41.69
2022-09-21T19:03:17.598Z,41.83
2022-09-21T19:06:10.214Z,41.92
2022-09-21T19:09:08.685Z,41.63
2022-09-21T19:11:44.125Z,42.33
2022-09-21T19:14:17.376Z,42.85
2022-09-21T19:16:59.823Z,42.60
2022-09-21T19:19:41.048Z,42.27
2022-09-21T19:22:11.063Z,42.36
2022-09-21T19:24:50.464Z,42.46
2022-09-21T19:27:20.426Z,42.87
2022-09-21T19:29:50.840Z,43.02
2022-09-21T19:32:31.312Z,43.83
2022-09-21T19:35:11.961Z,43.12
2022-09-21T19:37:39.744Z,43.27
2022-09-21T19:40:07.854Z,43.59
2022-09-21T19:42:54.402Z,43.71
2022-09-21T19:45:28.314Z,43.73
2022-09-21T19:48:04.989Z,44.15
2022-09-21T19:50:50.363Z,44.65
2022-09-21T19:53:36.387Z,44.65
2022-09-21T19:56:26.953Z,45.08
2022-09-21T19:59:13.216Z,44.78
2022-09-21T20:01:44.577Z,45.22
2022-09-21T20:04:15.621Z,44.89
2022-09-21T20:06:49.209Z,44.89
2022-09-21T20:09:35.573Z,45.49
2022-09-21T20:12:15.046Z,45.58
2022-09-21T20:15:00.800Z,45.60
2022-09-21T20:17:59.831Z,46.16
2022-09-21T20:20:29.361Z,45.44
2022-09-21T20:22:57.104Z,45.19
2022-09-21T20:26:00.295Z,45.78
2022-09-21T20:28:28.028Z,46.08
2022-09-21T20:30:55.997Z,46.42
2022-09-21T20:33:24.487Z,46.75
2022-09-21T20:35:56.120Z,46.41
2022-09-21T20:38:23.862Z,46.60
2022-09-21T20:40:51.835Z,46.36
2022-09-21T20:43:19.920Z,46.77
2022-09-21T20:45:50.640Z,46.84
2022-09-21T20:48:18.086Z,47.42
2022-09-21T20:50:49.031Z,47.40
2022-09-21T20:53:17.534Z,47.27
2022-09-21T20:55:53.695Z,47.60
2022-09-21T20:58:21.736Z,47.88
2022-09-21T21:00:50.514Z,48.48
2022-09-21T21:03:19.500Z,48.85
2022-09-21T21:05:46.921Z,47.48
2022-09-21T21:08:14.391Z,47.34
2022-09-21T21:10:47.095Z,48.60
2022-09-21T21:13:14.488Z,48.07
2022-09-21T21:15:41.892Z,48.06
2022-09-21T21:18:12.609Z,47.50
2022-09-21T21:20:41.338Z,48.05
2022-09-21T21:23:09.060Z,48.40
2022-09-21T21:25:36.569Z,49.00
2022-09-21T21:28:04.360Z,49.15
2022-09-21T21:30:32.106Z,49.03
2022-09-21T21:32:59.471Z,49.29
2022-09-21T21:35:26.861Z,49.04
2022-09-21T21:37:54.392Z,48.33
2022-09-21T21:40:21.830Z,48.63
2022-09-21T21:42:49.156Z,48.38
2022-09-21T21:45:16.559Z,48.64
2022-09-21T21:47:44.406Z,48.18
2022-09-21T21:50:11.846Z,48.39
2022-09-21T21:52:39.311Z,48.77
2022-09-21T21:55:07.222Z,50.53
2022-09-21T21:57:35.160Z,49.93
2022-09-21T22:00:02.857Z,49.97
2022-09-21T22:02:32.686Z,51.53
2022-09-21T22:05:00.221Z,51.86
2022-09-21T22:07:27.637Z,52.47
2022-09-21T22:09:56.220Z,52.95
2022-09-21T22:12:23.626Z,52.71
2022-09-21T22:14:50.892Z,52.81
2022-09-21T22:17:18.466Z,53.41
2022-09-21T22:19:45.851Z,52.95
2022-09-21T22:22:13.326Z,52.81
2022-09-21T22:24:40.837Z,52.40
2022-09-21T22:27:08.261Z,52.69
2022-09-21T22:29:36.053Z,52.86
2022-09-21T22:32:03.582Z,52.69
2022-09-21T22:34:31.007Z,53.70
2022-09-21T22:37:01.625Z,53.11
2022-09-21T22:39:29.076Z,53.16
2022-09-21T22:41:56.487Z,53.65
2022-09-21T22:44:23.926Z,53.85
2022-09-21T22:46:51.455Z,53.91
2022-09-21T22:49:18.810Z,54.93
2022-09-21T22:51:46.300Z,54.99
2022-09-21T22:54:13.545Z,55.60
2022-09-21T22:56:40.905Z,55.47
2022-09-21T22:59:08.658Z,56.15
2022-09-21T23:01:38.945Z,56.45
2022-09-21T23:04:11.727Z,56.08
2022-09-21T23:06:41.481Z,55.69
2022-09-21T23:09:14.705Z,55.93
2022-09-21T23:11:44.686Z,56.27
2022-09-21T23:14:13.200Z,56.79
2022-09-21T23:16:40.775Z,57.41
2022-09-21T23:19:15.888Z,57.43
2022-09-21T23:21:46.308Z,57.73
2022-09-21T23:24:13.769Z,58.47
2022-09-21T23:26:41.911Z,58.29
2022-09-21T23:29:15.353Z,58.35
2022-09-21T23:31:45.549Z,58.64
2022-09-21T23:34:14.589Z,58.01
2022-09-21T23:36:43.217Z,57.97
2022-09-21T23:39:15.263Z,58.83
2022-09-21T23:41:43.110Z,57.93
2022-09-21T23:44:10.670Z,57.87
2022-09-21T23:46:39.382Z,57.92
2022-09-21T23:49:07.387Z,57.74
2022-09-21T23:51:35.442Z,57.43
2022-09-21T23:54:03.874Z,57.45
2022-09-21T23:56:31.955Z,57.83
2022-09-21T23:58:59.959Z,58.52
